createdAt,value
2023-03-25T00:01:33.664Z,7.75
2023-03-25T00:06:26.110Z,7.75
2023-03-25T00:11:23.296Z,7.74
2023-03-25T00:16:17.312Z,7.60
2023-03-25T00:21:16.675Z,7.65
2023-03-25T00:26:08.849Z,7.80
2023-03-25T00:31:03.523Z,7.73
2023-03-25T00:36:00.003Z,7.73
2023-03-25T00:40:55.034Z,7.71
2023-03-25T00:45:48.766Z,7.75
2023-03-25T00:50:43.975Z,7.72
2023-03-25T00:55:41.746Z,7.74
2023-03-25T01:00:35.210Z,7.69
2023-03-25T01:05:28.010Z,7.55
2023-03-25T01:10:19.625Z,7.51
2023-03-25T01:15:19.149Z,7.50
2023-03-25T01:20:13.801Z,7.42
2023-03-25T01:25:07.397Z,7.35
2023-03-25T01:30:00.167Z,7.14
2023-03-25T01:34:53.982Z,7.18
2023-03-25T01:39:47.478Z,7.11
2023-03-25T01:45:08.853Z,7.04
2023-03-25T01:50:03.200Z,6.88
2023-03-25T01:54:56.224Z,6.90
2023-03-25T01:59:48.486Z,7.04
2023-03-25T02:05:02.697Z,6.97
2023-03-25T02:09:59.624Z,7.01
2023-03-25T02:14:55.521Z,7.00
2023-03-25T02:20:24.049Z,6.95
2023-03-25T02:25:50.322Z,6.88
2023-03-25T02:31:21.158Z,6.90
2023-03-25T02:36:41.570Z,6.88
2023-03-25T02:41:43.064Z,6.88
2023-03-25T02:46:40.585Z,6.90
2023-03-25T02:51:36.548Z,6.84
2023-03-25T02:56:34.058Z,6.95
2023-03-25T03:01:35.688Z,6.78
2023-03-25T03:06:29.144Z,6.95
2023-03-25T03:11:23.941Z,6.91
2023-03-25T03:16:29.798Z,6.96
2023-03-25T03:21:33.979Z,6.91
2023-03-25T03:26:32.789Z,6.83
2023-03-25T03:31:59.241Z,6.86
2023-03-25T03:36:54.307Z,6.83
2023-03-25T03:41:54.297Z,6.79
2023-03-25T03:46:52.138Z,6.64
2023-03-25T03:51:56.623Z,6.76
2023-03-25T03:56:58.640Z,6.69
2023-03-25T04:02:02.761Z,6.65
2023-03-25T04:07:06.481Z,6.55
2023-03-25T04:12:05.089Z,6.47
2023-03-25T04:17:00.427Z,6.41
2023-03-25T04:21:55.686Z,6.38
2023-03-25T04:26:50.139Z,6.38
2023-03-25T04:31:46.985Z,6.43
2023-03-25T04:36:39.742Z,6.48
2023-03-25T04:41:32.797Z,6.47
2023-03-25T04:46:27.064Z,6.52
2023-03-25T04:51:21.671Z,6.47
2023-03-25T04:56:26.408Z,6.52
2023-03-25T05:01:31.091Z,6.55
2023-03-25T05:06:24.678Z,6.57
2023-03-25T05:11:20.339Z,6.62
2023-03-25T05:16:16.913Z,6.62
2023-03-25T05:21:13.841Z,6.68
2023-03-25T05:26:05.500Z,6.60
2023-03-25T05:31:09.493Z,6.46
2023-03-25T05:36:02.000Z,6.52
2023-03-25T05:40:56.219Z,6.51
2023-03-25T05:45:47.176Z,6.49
2023-03-25T05:50:43.166Z,6.48
2023-03-25T05:55:38.742Z,6.47
2023-03-25T06:00:38.223Z,6.45
2023-03-25T06:05:37.926Z,6.46
2023-03-25T06:10:37.819Z,6.58
2023-03-25T06:15:42.043Z,6.67
2023-03-25T06:20:35.387Z,6.61
2023-03-25T06:25:37.617Z,6.50
2023-03-25T06:30:33.736Z,6.53
2023-03-25T06:35:32.124Z,6.44
2023-03-25T06:40:33.500Z,6.40
2023-03-25T06:45:32.329Z,6.39
2023-03-25T06:50:50.407Z,6.43
2023-03-25T06:55:48.746Z,6.37
2023-03-25T07:00:53.470Z,6.31
2023-03-25T07:05:46.427Z,6.29
2023-03-25T07:10:41.205Z,6.28
2023-03-25T07:15:36.732Z,6.22
2023-03-25T07:20:27.993Z,6.42
2023-03-25T07:25:22.220Z,6.50
2023-03-25T07:30:14.540Z,6.63
2023-03-25T07:35:09.982Z,6.67
2023-03-25T07:40:05.979Z,6.73
2023-03-25T07:44:59.784Z,6.75
2023-03-25T07:50:03.015Z,6.80
2023-03-25T07:54:55.963Z,6.87
2023-03-25T07:59:46.582Z,6.93
2023-03-25T08:04:50.656Z,7.02
2023-03-25T08:09:45.466Z,7.08
2023-03-25T08:14:39.715Z,7.13
2023-03-25T08:19:35.299Z,7.23
2023-03-25T08:24:30.549Z,7.25
2023-03-25T08:29:27.287Z,7.28
2023-03-25T08:34:22.205Z,7.42
2023-03-25T08:39:17.654Z,7.50
2023-03-25T08:44:09.904Z,7.54
2023-03-25T08:49:05.268Z,7.48
2023-03-25T08:53:59.880Z,7.61
2023-03-25T08:58:51.019Z,7.82
2023-03-25T09:03:45.634Z,8.15
2023-03-25T09:08:37.155Z,8.29
2023-03-25T09:13:40.130Z,8.31
2023-03-25T09:18:32.244Z,8.74
2023-03-25T09:23:23.616Z,9.25
2023-03-25T09:28:13.984Z,9.15
2023-03-25T09:33:10.355Z,9.21
2023-03-25T09:38:02.132Z,9.12
2023-03-25T09:43:37.978Z,9.13
2023-03-25T09:48:37.952Z,9.07
2023-03-25T09:53:39.674Z,9.09
2023-03-25T09:58:44.099Z,9.26
2023-03-25T10:03:58.511Z,9.38
2023-03-25T10:08:58.929Z,9.50
2023-03-25T10:13:57.538Z,9.56
2023-03-25T10:19:17.980Z,9.81
2023-03-25T10:24:22.107Z,9.81
2023-03-25T10:29:16.752Z,9.77
2023-03-25T10:34:25.536Z,9.97
2023-03-25T10:39:23.108Z,9.90
2023-03-25T10:44:17.517Z,9.68
2023-03-25T10:49:16.220Z,9.45
2023-03-25T10:54:14.171Z,9.21
2023-03-25T10:59:12.714Z,9.19
2023-03-25T11:04:18.096Z,9.22
2023-03-25T11:09:24.762Z,9.52
2023-03-25T11:14:28.298Z,9.79
2023-03-25T11:19:27.300Z,10.00
2023-03-25T11:24:23.470Z,10.11
2023-03-25T11:29:32.186Z,10.21
2023-03-25T11:34:30.587Z,10.24
2023-03-25T11:39:29.632Z,10.18
2023-03-25T11:44:27.291Z,10.34
2023-03-25T11:49:24.446Z,10.57
2023-03-25T11:54:21.062Z,10.51
2023-03-25T11:59:21.613Z,10.50
2023-03-25T12:04:19.987Z,10.43
2023-03-25T12:09:15.466Z,10.39
2023-03-25T12:14:26.481Z,10.21
2023-03-25T12:19:25.984Z,10.05
2023-03-25T12:24:35.082Z,10.06
2023-03-25T12:29:44.340Z,10.23
2023-03-25T12:34:47.152Z,10.35
2023-03-25T12:39:53.941Z,10.37
2023-03-25T12:45:09.477Z,10.54
2023-03-25T12:50:25.452Z,10.73
2023-03-25T12:55:35.658Z,10.74
2023-03-25T13:00:56.922Z,10.69
2023-03-25T13:05:53.144Z,10.79
2023-03-25T13:10:48.374Z,10.91
2023-03-25T13:15:47.005Z,10.71
2023-03-25T13:20:43.143Z,10.89
2023-03-25T13:25:39.805Z,10.91
2023-03-25T13:30:42.301Z,10.73
2023-03-25T13:35:42.315Z,10.66
2023-03-25T13:40:47.837Z,10.62
2023-03-25T13:45:52.335Z,10.58
2023-03-25T13:50:50.508Z,10.62
2023-03-25T13:55:45.336Z,10.64
2023-03-25T14:01:04.055Z,10.65
2023-03-25T14:06:20.634Z,10.87
2023-03-25T14:11:26.960Z,10.97
2023-03-25T14:16:24.228Z,10.89
2023-03-25T14:21:38.837Z,10.76
2023-03-25T14:26:33.041Z,10.73
2023-03-25T14:31:34.414Z,10.68
2023-03-25T14:36:57.435Z,10.60
2023-03-25T14:42:29.378Z,10.69
2023-03-25T14:47:37.616Z,10.67
2023-03-25T14:52:38.012Z,10.36
2023-03-25T14:57:36.762Z,10.22
2023-03-25T15:02:34.101Z,10.24
2023-03-25T15:07:43.203Z,10.36
2023-03-25T15:12:43.034Z,10.39
2023-03-25T15:17:48.018Z,10.43
2023-03-25T15:22:43.804Z,10.38
2023-03-25T15:28:09.268Z,10.26
2023-03-25T15:33:18.275Z,10.14
2023-03-25T15:38:35.718Z,10.06
2023-03-25T15:44:02.797Z,10.18
2023-03-25T15:49:18.863Z,10.08
2023-03-25T15:54:40.111Z,10.05
2023-03-25T15:59:41.960Z,9.99
2023-03-25T16:04:43.417Z,10.07
2023-03-25T16:09:45.301Z,10.02
2023-03-25T16:14:39.469Z,9.96
2023-03-25T16:19:36.179Z,9.90
2023-03-25T16:24:30.144Z,9.91
2023-03-25T16:29:24.340Z,9.87
2023-03-25T16:34:19.058Z,9.93
2023-03-25T16:39:16.199Z,9.90
2023-03-25T16:44:07.414Z,9.86
2023-03-25T16:49:01.813Z,9.71
2023-03-25T16:53:59.777Z,9.74
2023-03-25T16:59:03.196Z,9.67
2023-03-25T17:03:55.578Z,9.49
2023-03-25T17:08:54.067Z,9.42
2023-03-25T17:13:56.745Z,9.46
2023-03-25T17:18:55.171Z,9.49
2023-03-25T17:23:51.722Z,9.43
2023-03-25T17:28:45.410Z,9.32
2023-03-25T17:33:40.581Z,9.27
2023-03-25T17:38:40.792Z,9.26
2023-03-25T17:43:40.573Z,9.31
2023-03-25T17:48:32.469Z,9.22
2023-03-25T17:53:27.493Z,9.23
2023-03-25T17:58:22.849Z,9.13
2023-03-25T18:03:16.945Z,9.09
2023-03-25T18:08:10.454Z,9.01
2023-03-25T18:13:03.937Z,8.97
2023-03-25T18:17:55.928Z,8.82
2023-03-25T18:22:48.741Z,8.76
2023-03-25T18:27:44.133Z,8.70
2023-03-25T18:32:45.202Z,8.58
2023-03-25T18:37:38.987Z,8.49
2023-03-25T18:42:38.893Z,8.40
2023-03-25T18:47:29.501Z,8.07
2023-03-25T18:52:24.793Z,7.83
2023-03-25T18:57:15.577Z,7.67
2023-03-25T19:02:05.964Z,7.53
2023-03-25T19:06:57.345Z,7.11
2023-03-25T19:11:53.068Z,7.10
2023-03-25T19:16:57.191Z,7.21
2023-03-25T19:22:11.334Z,7.27
2023-03-25T19:27:10.165Z,7.18
2023-03-25T19:32:04.999Z,7.25
2023-03-25T19:37:03.314Z,7.26
2023-03-25T19:41:59.921Z,7.24
2023-03-25T19:46:56.069Z,7.24
2023-03-25T19:51:51.891Z,7.23
2023-03-25T19:56:46.772Z,7.23
2023-03-25T20:01:38.262Z,7.18
2023-03-25T20:06:31.834Z,7.07
2023-03-25T20:11:23.555Z,7.04
2023-03-25T20:16:20.968Z,7.08
2023-03-25T20:21:15.742Z,7.04
2023-03-25T20:26:13.273Z,6.96
2023-03-25T20:31:18.998Z,6.85
2023-03-25T20:36:14.116Z,6.78
2023-03-25T20:41:04.854Z,6.78
2023-03-25T20:46:01.949Z,6.80
2023-03-25T20:50:54.009Z,6.82
2023-03-25T20:55:48.702Z,6.67
2023-03-25T21:00:53.737Z,6.77
2023-03-25T21:05:50.157Z,6.68
2023-03-25T21:10:41.486Z,6.68
2023-03-25T21:15:35.085Z,6.67
2023-03-25T21:20:29.554Z,6.54
2023-03-25T21:25:34.940Z,6.58
2023-03-25T21:30:26.018Z,6.52
2023-03-25T21:35:19.448Z,6.55
2023-03-25T21:40:15.328Z,6.53
2023-03-25T21:45:18.301Z,6.57
2023-03-25T21:50:13.599Z,6.51
2023-03-25T21:55:14.850Z,6.49
2023-03-25T22:00:14.942Z,6.47
2023-03-25T22:05:05.294Z,6.46
2023-03-25T22:09:57.496Z,6.57
2023-03-25T22:14:50.872Z,6.57
2023-03-25T22:19:47.314Z,6.63
2023-03-25T22:24:38.667Z,6.68
2023-03-25T22:29:38.857Z,6.75
2023-03-25T22:34:32.278Z,6.89
2023-03-25T22:39:27.970Z,6.92
2023-03-25T22:44:22.073Z,6.93
2023-03-25T22:49:13.427Z,6.99
2023-03-25T22:54:05.688Z,6.91
2023-03-25T22:58:59.816Z,7.04
2023-03-25T23:03:51.381Z,7.05
2023-03-25T23:08:44.008Z,7.06
2023-03-25T23:13:35.171Z,7.09
2023-03-25T23:18:29.151Z,7.11
2023-03-25T23:23:22.788Z,7.11
2023-03-25T23:28:22.741Z,7.19
2023-03-25T23:33:15.937Z,7.18
2023-03-25T23:38:10.264Z,7.18
2023-03-25T23:43:03.361Z,7.09
2023-03-25T23:47:54.818Z,7.04
2023-03-25T23:52:45.720Z,7.22
2023-03-25T23:57:45.006Z,7.22
